sensor_id;sensor_type;location;lat;lon;timestamp;pressure;altitude;pressure_sealevel;temperature;humidity
11099;BME280;12223;42.650;23.364;2023-08-21T00:00:42;95068.41;;;24.42;63.69
11099;BME280;12223;42.650;23.364;2023-08-21T00:03:09;95067.94;;;23.76;67.58
11099;BME280;12223;42.650;23.364;2023-08-21T00:05:36;95067.75;;;23.86;67.93
11099;BME280;12223;42.650;23.364;2023-08-21T00:08:03;95069.59;;;24.36;65.55
11099;BME280;12223;42.650;23.364;2023-08-21T00:10:31;95061.50;;;24.50;63.53
11099;BME280;12223;42.650;23.364;2023-08-21T00:12:58;95066.31;;;24.53;64.19
11099;BME280;12223;42.650;23.364;2023-08-21T00:15:25;95059.00;;;24.81;62.73
11099;BME280;12223;42.650;23.364;2023-08-21T00:17:52;95065.72;;;24.56;63.22
11099;BME280;12223;42.650;23.364;2023-08-21T00:20:21;95050.41;;;24.38;64.36
11099;BME280;12223;42.650;23.364;2023-08-21T00:22:47;95062.19;;;24.42;64.21
11099;BME280;12223;42.650;23.364;2023-08-21T00:25:14;95062.69;;;23.98;67.93
11099;BME280;12223;42.650;23.364;2023-08-21T00:27:42;95056.47;;;24.30;65.84
11099;BME280;12223;42.650;23.364;2023-08-21T00:30:10;95063.22;;;24.00;68.32
11099;BME280;12223;42.650;23.364;2023-08-21T00:32:40;95059.09;;;24.21;66.54
11099;BME280;12223;42.650;23.364;2023-08-21T00:35:09;95057.50;;;24.61;63.80
11099;BME280;12223;42.650;23.364;2023-08-21T00:37:36;95059.41;;;24.33;64.97
11099;BME280;12223;42.650;23.364;2023-08-21T00:40:03;95059.75;;;24.13;67.87
11099;BME280;12223;42.650;23.364;2023-08-21T00:42:30;95071.16;;;23.59;69.93
11099;BME280;12223;42.650;23.364;2023-08-21T00:44:58;95073.13;;;24.18;67.10
11099;BME280;12223;42.650;23.364;2023-08-21T00:47:25;95058.81;;;24.64;64.15
11099;BME280;12223;42.650;23.364;2023-08-21T00:49:52;95072.72;;;23.79;68.20
11099;BME280;12223;42.650;23.364;2023-08-21T00:52:19;95069.44;;;23.82;68.28
11099;BME280;12223;42.650;23.364;2023-08-21T00:54:46;95065.09;;;23.67;69.91
11099;BME280;12223;42.650;23.364;2023-08-21T00:57:14;95074.66;;;23.59;71.18
11099;BME280;12223;42.650;23.364;2023-08-21T00:59:41;95077.25;;;23.08;73.29
11099;BME280;12223;42.650;23.364;2023-08-21T01:02:09;95074.56;;;23.27;73.50
11099;BME280;12223;42.650;23.364;2023-08-21T01:04:37;95069.13;;;23.13;75.89
11099;BME280;12223;42.650;23.364;2023-08-21T01:07:03;95079.47;;;23.62;72.49
11099;BME280;12223;42.650;23.364;2023-08-21T01:09:40;95072.25;;;23.39;74.35
11099;BME280;12223;42.650;23.364;2023-08-21T01:12:14;95064.69;;;22.56;79.47
11099;BME280;12223;42.650;23.364;2023-08-21T01:14:50;95065.75;;;23.03;75.55
11099;BME280;12223;42.650;23.364;2023-08-21T01:17:19;95077.88;;;22.81;78.65
11099;BME280;12223;42.650;23.364;2023-08-21T01:19:49;95072.25;;;23.20;75.64
11099;BME280;12223;42.650;23.364;2023-08-21T01:22:16;95069.25;;;23.59;72.76
11099;BME280;12223;42.650;23.364;2023-08-21T01:24:44;95067.34;;;23.79;71.04
11099;BME280;12223;42.650;23.364;2023-08-21T01:27:12;95071.69;;;23.93;69.43
11099;BME280;12223;42.650;23.364;2023-08-21T01:29:40;95066.81;;;23.02;75.34
11099;BME280;12223;42.650;23.364;2023-08-21T01:32:10;95074.94;;;23.77;71.20
11099;BME280;12223;42.650;23.364;2023-08-21T01:34:41;95072.94;;;23.82;70.23
11099;BME280;12223;42.650;23.364;2023-08-21T01:37:08;95061.78;;;24.21;67.63
11099;BME280;12223;42.650;23.364;2023-08-21T01:39:35;95072.81;;;24.06;68.62
11099;BME280;12223;42.650;23.364;2023-08-21T01:42:03;95065.78;;;24.24;66.82
11099;BME280;12223;42.650;23.364;2023-08-21T01:44:30;95076.06;;;23.57;70.54
11099;BME280;12223;42.650;23.364;2023-08-21T01:46:57;95072.63;;;23.51;71.73
11099;BME280;12223;42.650;23.364;2023-08-21T01:49:24;95078.28;;;23.69;69.91
11099;BME280;12223;42.650;23.364;2023-08-21T01:51:51;95071.47;;;23.90;69.06
11099;BME280;12223;42.650;23.364;2023-08-21T01:54:18;95069.84;;;23.19;73.02
11099;BME280;12223;42.650;23.364;2023-08-21T01:56:44;95078.72;;;23.38;72.42
11099;BME280;12223;42.650;23.364;2023-08-21T01:59:12;95069.31;;;23.36;71.68
11099;BME280;12223;42.650;23.364;2023-08-21T02:01:39;95076.75;;;23.81;69.84
11099;BME280;12223;42.650;23.364;2023-08-21T02:04:06;95073.00;;;23.63;70.38
11099;BME280;12223;42.650;23.364;2023-08-21T02:06:33;95067.50;;;23.69;71.02
11099;BME280;12223;42.650;23.364;2023-08-21T02:09:00;95070.31;;;23.96;68.53
11099;BME280;12223;42.650;23.364;2023-08-21T02:11:27;95061.47;;;24.23;66.82
11099;BME280;12223;42.650;23.364;2023-08-21T02:13:54;95075.56;;;23.87;68.70
11099;BME280;12223;42.650;23.364;2023-08-21T02:16:22;95066.53;;;24.11;67.19
11099;BME280;12223;42.650;23.364;2023-08-21T02:18:49;95067.59;;;23.96;68.66
11099;BME280;12223;42.650;23.364;2023-08-21T02:21:16;95063.97;;;24.19;67.02
11099;BME280;12223;42.650;23.364;2023-08-21T02:23:43;95069.03;;;24.07;67.59
11099;BME280;12223;42.650;23.364;2023-08-21T02:26:09;95068.59;;;24.32;65.61
11099;BME280;12223;42.650;23.364;2023-08-21T02:28:36;95061.16;;;23.59;71.58
11099;BME280;12223;42.650;23.364;2023-08-21T02:31:03;95061.75;;;23.38;72.12
11099;BME280;12223;42.650;23.364;2023-08-21T02:33:32;95066.47;;;23.27;73.89
11099;BME280;12223;42.650;23.364;2023-08-21T02:35:58;95068.69;;;23.25;73.66
11099;BME280;12223;42.650;23.364;2023-08-21T02:38:26;95067.16;;;23.38;72.81
11099;BME280;12223;42.650;23.364;2023-08-21T02:40:53;95061.25;;;22.51;80.03
11099;BME280;12223;42.650;23.364;2023-08-21T02:43:19;95063.22;;;23.30;74.81
11099;BME280;12223;42.650;23.364;2023-08-21T02:45:46;95063.56;;;23.42;73.25
11099;BME280;12223;42.650;23.364;2023-08-21T02:48:13;95070.94;;;23.55;72.48
11099;BME280;12223;42.650;23.364;2023-08-21T02:50:41;95070.91;;;22.99;75.58
11099;BME280;12223;42.650;23.364;2023-08-21T02:53:09;95069.75;;;23.43;73.24
11099;BME280;12223;42.650;23.364;2023-08-21T02:55:36;95060.66;;;23.39;73.61
11099;BME280;12223;42.650;23.364;2023-08-21T02:58:03;95062.94;;;23.32;74.90
11099;BME280;12223;42.650;23.364;2023-08-21T03:00:31;95071.25;;;22.74;76.36
11099;BME280;12223;42.650;23.364;2023-08-21T03:02:57;95070.03;;;23.04;77.31
11099;BME280;12223;42.650;23.364;2023-08-21T03:05:24;95070.56;;;23.06;76.46
11099;BME280;12223;42.650;23.364;2023-08-21T03:07:53;95071.50;;;23.34;74.21
11099;BME280;12223;42.650;23.364;2023-08-21T03:10:19;95073.38;;;23.14;75.34
11099;BME280;12223;42.650;23.364;2023-08-21T03:12:48;95080.53;;;22.58;78.97
11099;BME280;12223;42.650;23.364;2023-08-21T03:15:15;95082.28;;;21.91;86.06
11099;BME280;12223;42.650;23.364;2023-08-21T03:17:42;95083.28;;;22.29;83.65
11099;BME280;12223;42.650;23.364;2023-08-21T03:20:09;95082.38;;;22.62;80.99
11099;BME280;12223;42.650;23.364;2023-08-21T03:22:36;95085.34;;;22.61;81.13
11099;BME280;12223;42.650;23.364;2023-08-21T03:25:05;95084.91;;;22.30;84.34
11099;BME280;12223;42.650;23.364;2023-08-21T03:27:32;95094.81;;;22.05;85.49
11099;BME280;12223;42.650;23.364;2023-08-21T03:29:59;95087.75;;;21.81;89.05
11099;BME280;12223;42.650;23.364;2023-08-21T03:32:28;95080.06;;;22.27;85.98
11099;BME280;12223;42.650;23.364;2023-08-21T03:34:55;95094.59;;;21.63;90.41
11099;BME280;12223;42.650;23.364;2023-08-21T03:37:22;95090.19;;;21.77;90.66
11099;BME280;12223;42.650;23.364;2023-08-21T03:39:48;95096.94;;;22.09;88.40
11099;BME280;12223;42.650;23.364;2023-08-21T03:42:17;95092.91;;;21.33;96.37
11099;BME280;12223;42.650;23.364;2023-08-21T03:44:43;95091.91;;;21.19;99.40
11099;BME280;12223;42.650;23.364;2023-08-21T03:47:10;95096.13;;;21.35;98.51
11099;BME280;12223;42.650;23.364;2023-08-21T03:49:39;95080.84;;;22.03;90.80
11099;BME280;12223;42.650;23.364;2023-08-21T03:52:06;95087.09;;;21.94;90.03
11099;BME280;12223;42.650;23.364;2023-08-21T03:54:34;95088.06;;;22.37;87.75
11099;BME280;12223;42.650;23.364;2023-08-21T03:57:04;95099.09;;;22.59;85.12
11099;BME280;12223;42.650;23.364;2023-08-21T03:59:41;95093.69;;;22.88;83.22
11099;BME280;12223;42.650;23.364;2023-08-21T04:02:08;95083.75;;;23.07;82.02
11099;BME280;12223;42.650;23.364;2023-08-21T04:04:34;95096.22;;;22.79;81.16
11099;BME280;12223;42.650;23.364;2023-08-21T04:07:01;95089.78;;;23.37;79.46
11099;BME280;12223;42.650;23.364;2023-08-21T04:09:28;95084.28;;;23.98;73.49
11099;BME280;12223;42.650;23.364;2023-08-21T04:11:55;95099.66;;;23.97;72.39
11099;BME280;12223;42.650;23.364;2023-08-21T04:14:21;95095.28;;;24.20;72.45
11099;BME280;12223;42.650;23.364;2023-08-21T04:16:49;95093.31;;;25.21;65.04
11099;BME280;12223;42.650;23.364;2023-08-21T04:19:16;95093.72;;;26.31;60.44
11099;BME280;12223;42.650;23.364;2023-08-21T04:21:45;95097.34;;;26.89;56.56
11099;BME280;12223;42.650;23.364;2023-08-21T04:24:11;95105.34;;;27.59;53.46
11099;BME280;12223;42.650;23.364;2023-08-21T04:26:38;95101.34;;;27.82;51.47
11099;BME280;12223;42.650;23.364;2023-08-21T04:29:05;95105.34;;;27.85;50.91
11099;BME280;12223;42.650;23.364;2023-08-21T04:31:32;95107.22;;;27.41;52.44
11099;BME280;12223;42.650;23.364;2023-08-21T04:34:00;95110.91;;;28.95;47.85
11099;BME280;12223;42.650;23.364;2023-08-21T04:36:27;95110.72;;;30.01;44.83
11099;BME280;12223;42.650;23.364;2023-08-21T04:38:54;95112.94;;;30.97;42.46
11099;BME280;12223;42.650;23.364;2023-08-21T04:41:22;95117.81;;;30.92;42.06
11099;BME280;12223;42.650;23.364;2023-08-21T04:43:49;95112.81;;;31.54;40.13
11099;BME280;12223;42.650;23.364;2023-08-21T04:46:16;95114.47;;;32.51;38.00
11099;BME280;12223;42.650;23.364;2023-08-21T04:48:43;95118.41;;;33.44;36.23
11099;BME280;12223;42.650;23.364;2023-08-21T04:51:11;95126.38;;;34.04;34.84
11099;BME280;12223;42.650;23.364;2023-08-21T04:53:38;95120.09;;;34.03;34.73
11099;BME280;12223;42.650;23.364;2023-08-21T04:56:05;95128.81;;;34.86;33.60
11099;BME280;12223;42.650;23.364;2023-08-21T04:58:32;95124.09;;;35.28;32.68
11099;BME280;12223;42.650;23.364;2023-08-21T05:00:59;95129.00;;;36.91;29.45
11099;BME280;12223;42.650;23.364;2023-08-21T05:03:26;95132.66;;;38.05;28.21
11099;BME280;12223;42.650;23.364;2023-08-21T05:05:53;95140.78;;;38.59;26.99
11099;BME280;12223;42.650;23.364;2023-08-21T05:08:22;95136.41;;;37.79;27.79
11099;BME280;12223;42.650;23.364;2023-08-21T05:10:54;95133.81;;;34.61;32.21
11099;BME280;12223;42.650;23.364;2023-08-21T05:13:21;95146.69;;;36.90;29.56
11099;BME280;12223;42.650;23.364;2023-08-21T05:15:51;95144.59;;;38.30;27.11
11099;BME280;12223;42.650;23.364;2023-08-21T05:18:20;95146.44;;;38.98;25.98
11099;BME280;12223;42.650;23.364;2023-08-21T05:20:46;95156.66;;;33.91;32.70
11099;BME280;12223;42.650;23.364;2023-08-21T05:23:13;95151.53;;;33.90;33.83
11099;BME280;12223;42.650;23.364;2023-08-21T05:25:42;95141.88;;;37.21;29.18
11099;BME280;12223;42.650;23.364;2023-08-21T05:28:09;95151.75;;;37.76;27.70
11099;BME280;12223;42.650;23.364;2023-08-21T05:30:36;95145.66;;;39.16;25.56
11099;BME280;12223;42.650;23.364;2023-08-21T05:33:03;95148.31;;;40.36;24.55
11099;BME280;12223;42.650;23.364;2023-08-21T05:35:33;95146.97;;;40.76;24.58
11099;BME280;12223;42.650;23.364;2023-08-21T05:38:00;95145.59;;;41.64;23.72
11099;BME280;12223;42.650;23.364;2023-08-21T05:40:26;95153.25;;;41.43;23.46
11099;BME280;12223;42.650;23.364;2023-08-21T05:42:55;95149.63;;;41.56;23.63
11099;BME280;12223;42.650;23.364;2023-08-21T05:45:22;95138.06;;;41.13;23.78
11099;BME280;12223;42.650;23.364;2023-08-21T05:47:48;95150.94;;;41.38;23.47
11099;BME280;12223;42.650;23.364;2023-08-21T05:50:15;95147.50;;;41.19;23.28
11099;BME280;12223;42.650;23.364;2023-08-21T05:52:42;95136.09;;;40.16;24.63
11099;BME280;12223;42.650;23.364;2023-08-21T05:55:09;95141.75;;;39.49;25.42
11099;BME280;12223;42.650;23.364;2023-08-21T05:57:37;95142.91;;;39.26;25.94
11099;BME280;12223;42.650;23.364;2023-08-21T06:00:07;95135.00;;;39.18;25.99
11099;BME280;12223;42.650;23.364;2023-08-21T06:02:34;95139.25;;;38.83;26.20
11099;BME280;12223;42.650;23.364;2023-08-21T06:05:01;95146.75;;;38.69;26.38
11099;BME280;12223;42.650;23.364;2023-08-21T06:07:28;95143.78;;;37.61;27.30
11099;BME280;12223;42.650;23.364;2023-08-21T06:09:55;95132.47;;;36.85;28.98
11099;BME280;12223;42.650;23.364;2023-08-21T06:12:22;95144.34;;;36.59;29.06
11099;BME280;12223;42.650;23.364;2023-08-21T06:14:48;95137.53;;;36.16;29.44
11099;BME280;12223;42.650;23.364;2023-08-21T06:17:17;95135.84;;;35.78;29.96
11099;BME280;12223;42.650;23.364;2023-08-21T06:19:44;95142.19;;;34.87;31.77
11099;BME280;12223;42.650;23.364;2023-08-21T06:22:11;95141.03;;;34.88;31.84
11099;BME280;12223;42.650;23.364;2023-08-21T06:24:37;95136.00;;;34.52;32.63
11099;BME280;12223;42.650;23.364;2023-08-21T06:27:04;95148.16;;;33.97;33.00
11099;BME280;12223;42.650;23.364;2023-08-21T06:29:31;95140.81;;;33.66;33.48
11099;BME280;12223;42.650;23.364;2023-08-21T06:31:58;95140.63;;;33.74;33.27
11099;BME280;12223;42.650;23.364;2023-08-21T06:34:26;95147.63;;;33.72;33.75
11099;BME280;12223;42.650;23.364;2023-08-21T06:36:53;95148.44;;;33.41;34.19
11099;BME280;12223;42.650;23.364;2023-08-21T06:39:20;95141.78;;;31.95;37.69
11099;BME280;12223;42.650;23.364;2023-08-21T06:41:46;95150.72;;;32.20;37.01
11099;BME280;12223;42.650;23.364;2023-08-21T06:44:13;95146.28;;;31.64;37.12
11099;BME280;12223;42.650;23.364;2023-08-21T06:46:40;95142.59;;;31.84;37.16
11099;BME280;12223;42.650;23.364;2023-08-21T06:49:07;95140.13;;;31.79;38.19
11099;BME280;12223;42.650;23.364;2023-08-21T06:51:35;95138.00;;;31.36;39.36
11099;BME280;12223;42.650;23.364;2023-08-21T06:54:02;95146.47;;;30.98;40.44
11099;BME280;12223;42.650;23.364;2023-08-21T06:56:29;95141.59;;;31.03;39.91
11099;BME280;12223;42.650;23.364;2023-08-21T06:58:55;95141.47;;;30.55;40.19
11099;BME280;12223;42.650;23.364;2023-08-21T07:01:23;95139.13;;;31.35;38.30
11099;BME280;12223;42.650;23.364;2023-08-21T07:03:50;95139.13;;;31.59;38.20
11099;BME280;12223;42.650;23.364;2023-08-21T07:06:17;95137.53;;;31.09;39.31
11099;BME280;12223;42.650;23.364;2023-08-21T07:08:45;95146.25;;;30.25;40.35
11099;BME280;12223;42.650;23.364;2023-08-21T07:11:12;95147.50;;;30.27;40.76
11099;BME280;12223;42.650;23.364;2023-08-21T07:13:39;95144.88;;;30.85;39.45
11099;BME280;12223;42.650;23.364;2023-08-21T07:16:06;95144.34;;;31.64;38.49
11099;BME280;12223;42.650;23.364;2023-08-21T07:18:34;95140.94;;;32.07;37.50
11099;BME280;12223;42.650;23.364;2023-08-21T07:21:02;95141.94;;;31.50;39.22
11099;BME280;12223;42.650;23.364;2023-08-21T07:23:30;95142.47;;;31.92;36.86
11099;BME280;12223;42.650;23.364;2023-08-21T07:25:58;95140.69;;;32.12;36.66
11099;BME280;12223;42.650;23.364;2023-08-21T07:28:25;95139.78;;;32.20;37.11
11099;BME280;12223;42.650;23.364;2023-08-21T07:30:54;95131.91;;;32.31;36.54
11099;BME280;12223;42.650;23.364;2023-08-21T07:33:22;95132.53;;;32.40;36.04
11099;BME280;12223;42.650;23.364;2023-08-21T07:35:56;95138.66;;;32.65;35.94
11099;BME280;12223;42.650;23.364;2023-08-21T07:38:23;95133.91;;;32.62;35.88
11099;BME280;12223;42.650;23.364;2023-08-21T07:40:50;95138.63;;;32.93;36.12
11099;BME280;12223;42.650;23.364;2023-08-21T07:43:18;95139.34;;;32.74;35.66
11099;BME280;12223;42.650;23.364;2023-08-21T07:45:45;95136.34;;;33.10;34.96
11099;BME280;12223;42.650;23.364;2023-08-21T07:48:12;95134.84;;;33.13;35.04
11099;BME280;12223;42.650;23.364;2023-08-21T07:50:38;95137.47;;;33.09;35.30
11099;BME280;12223;42.650;23.364;2023-08-21T07:53:05;95134.69;;;33.37;34.39
11099;BME280;12223;42.650;23.364;2023-08-21T07:55:32;95133.31;;;33.47;33.72
11099;BME280;12223;42.650;23.364;2023-08-21T07:57:59;95131.84;;;33.18;34.94
11099;BME280;12223;42.650;23.364;2023-08-21T08:00:27;95103.66;;;32.70;34.43
11099;BME280;12223;42.650;23.364;2023-08-21T08:02:54;95128.59;;;33.28;34.03
11099;BME280;12223;42.650;23.364;2023-08-21T08:05:20;95128.97;;;32.24;34.62
11099;BME280;12223;42.650;23.364;2023-08-21T08:07:47;95120.09;;;32.43;34.12
11099;BME280;12223;42.650;23.364;2023-08-21T08:10:14;95118.97;;;31.03;36.26
11099;BME280;12223;42.650;23.364;2023-08-21T08:12:42;95109.59;;;30.67;36.93
11099;BME280;12223;42.650;23.364;2023-08-21T08:15:09;95115.25;;;31.96;34.94
11099;BME280;12223;42.650;23.364;2023-08-21T08:17:38;95114.31;;;32.16;34.06
11099;BME280;12223;42.650;23.364;2023-08-21T08:20:05;95114.81;;;33.25;32.38
11099;BME280;12223;42.650;23.364;2023-08-21T08:22:32;95108.16;;;33.57;31.90
11099;BME280;12223;42.650;23.364;2023-08-21T08:24:59;95115.09;;;34.44;31.39
11099;BME280;12223;42.650;23.364;2023-08-21T08:27:26;95103.75;;;34.87;30.86
11099;BME280;12223;42.650;23.364;2023-08-21T08:29:52;95109.34;;;35.40;30.28
11099;BME280;12223;42.650;23.364;2023-08-21T08:32:20;95112.91;;;34.14;31.10
11099;BME280;12223;42.650;23.364;2023-08-21T08:34:48;95111.78;;;33.14;32.43
11099;BME280;12223;42.650;23.364;2023-08-21T08:37:15;95104.81;;;32.69;32.87
11099;BME280;12223;42.650;23.364;2023-08-21T08:39:42;95098.81;;;33.27;31.95
11099;BME280;12223;42.650;23.364;2023-08-21T08:42:10;95104.69;;;31.82;34.82
11099;BME280;12223;42.650;23.364;2023-08-21T08:44:37;95099.31;;;32.54;33.20
11099;BME280;12223;42.650;23.364;2023-08-21T08:47:04;95098.13;;;33.65;31.99
11099;BME280;12223;42.650;23.364;2023-08-21T08:49:31;95091.16;;;33.32;32.21
11099;BME280;12223;42.650;23.364;2023-08-21T08:52:00;95094.97;;;34.59;30.22
11099;BME280;12223;42.650;23.364;2023-08-21T08:54:27;95094.44;;;33.92;30.33
11099;BME280;12223;42.650;23.364;2023-08-21T08:56:54;95081.75;;;34.84;30.51
11099;BME280;12223;42.650;23.364;2023-08-21T08:59:20;95090.13;;;33.56;30.75
11099;BME280;12223;42.650;23.364;2023-08-21T09:01:47;95086.25;;;34.73;29.92
11099;BME280;12223;42.650;23.364;2023-08-21T09:04:15;95084.94;;;34.66;29.99
11099;BME280;12223;42.650;23.364;2023-08-21T09:06:42;95092.03;;;33.71;30.49
11099;BME280;12223;42.650;23.364;2023-08-21T09:09:10;95083.69;;;34.22;29.90
11099;BME280;12223;42.650;23.364;2023-08-21T09:11:42;95085.41;;;33.22;30.50
11099;BME280;12223;42.650;23.364;2023-08-21T09:14:09;95084.38;;;33.45;30.44
11099;BME280;12223;42.650;23.364;2023-08-21T09:16:36;95082.91;;;33.17;31.25
11099;BME280;12223;42.650;23.364;2023-08-21T09:19:03;95081.59;;;33.10;31.45
11099;BME280;12223;42.650;23.364;2023-08-21T09:21:30;95077.47;;;32.85;31.90
11099;BME280;12223;42.650;23.364;2023-08-21T09:23:58;95080.19;;;33.01;31.73
11099;BME280;12223;42.650;23.364;2023-08-21T09:26:27;95068.97;;;32.43;32.33
11099;BME280;12223;42.650;23.364;2023-08-21T09:28:58;95071.31;;;33.20;30.95
11099;BME280;12223;42.650;23.364;2023-08-21T09:31:30;95068.47;;;32.69;31.77
11099;BME280;12223;42.650;23.364;2023-08-21T09:33:58;95069.03;;;33.41;30.83
11099;BME280;12223;42.650;23.364;2023-08-21T09:36:26;95076.81;;;32.60;31.07
11099;BME280;12223;42.650;23.364;2023-08-21T09:38:53;95081.88;;;32.74;31.13
11099;BME280;12223;42.650;23.364;2023-08-21T09:41:21;95067.09;;;32.63;30.90
11099;BME280;12223;42.650;23.364;2023-08-21T09:43:49;95074.75;;;33.51;29.87
11099;BME280;12223;42.650;23.364;2023-08-21T09:46:17;95053.53;;;33.83;29.15
11099;BME280;12223;42.650;23.364;2023-08-21T09:48:45;95062.19;;;33.85;29.55
11099;BME280;12223;42.650;23.364;2023-08-21T09:51:12;95063.38;;;33.49;29.95
11099;BME280;12223;42.650;23.364;2023-08-21T09:53:39;95047.78;;;34.08;29.02
11099;BME280;12223;42.650;23.364;2023-08-21T09:56:07;95056.38;;;34.25;29.26
11099;BME280;12223;42.650;23.364;2023-08-21T09:58:35;95054.47;;;34.72;28.73
11099;BME280;12223;42.650;23.364;2023-08-21T10:01:04;95046.81;;;34.61;28.12
11099;BME280;12223;42.650;23.364;2023-08-21T10:03:38;95048.34;;;34.17;29.49
11099;BME280;12223;42.650;23.364;2023-08-21T10:06:05;95040.53;;;34.61;28.16
11099;BME280;12223;42.650;23.364;2023-08-21T10:08:37;95032.97;;;34.54;28.63
11099;BME280;12223;42.650;23.364;2023-08-21T10:11:05;95035.25;;;34.72;28.12
11099;BME280;12223;42.650;23.364;2023-08-21T10:13:34;95026.34;;;34.33;28.33
11099;BME280;12223;42.650;23.364;2023-08-21T10:16:03;95030.06;;;34.44;27.92
11099;BME280;12223;42.650;23.364;2023-08-21T10:18:33;95020.22;;;34.65;28.09
11099;BME280;12223;42.650;23.364;2023-08-21T10:21:14;95024.47;;;33.98;29.33
11099;BME280;12223;42.650;23.364;2023-08-21T10:23:43;95027.63;;;33.27;29.17
11099;BME280;12223;42.650;23.364;2023-08-21T10:26:12;95022.09;;;33.77;28.99
11099;BME280;12223;42.650;23.364;2023-08-21T10:28:47;95024.34;;;33.91;28.35
11099;BME280;12223;42.650;23.364;2023-08-21T10:31:31;95014.53;;;34.51;28.38
11099;BME280;12223;42.650;23.364;2023-08-21T10:33:59;95013.16;;;34.42;28.23
11099;BME280;12223;42.650;23.364;2023-08-21T10:39:36;95013.88;;;35.07;27.79
11099;BME280;12223;42.650;23.364;2023-08-21T10:42:06;95006.59;;;34.69;27.59
11099;BME280;12223;42.650;23.364;2023-08-21T10:44:46;94997.75;;;34.56;27.53
11099;BME280;12223;42.650;23.364;2023-08-21T10:47:19;95009.28;;;34.88;27.51
11099;BME280;12223;42.650;23.364;2023-08-21T10:49:47;94999.72;;;34.14;27.80
11099;BME280;12223;42.650;23.364;2023-08-21T10:52:20;94990.69;;;34.78;27.49
11099;BME280;12223;42.650;23.364;2023-08-21T10:54:49;94958.03;;;34.24;27.36
11099;BME280;12223;42.650;23.364;2023-08-21T10:57:16;94984.63;;;34.69;27.69
11099;BME280;12223;42.650;23.364;2023-08-21T10:59:50;94973.84;;;33.92;28.15
11099;BME280;12223;42.650;23.364;2023-08-21T11:02:19;94984.16;;;33.41;28.79
11099;BME280;12223;42.650;23.364;2023-08-21T11:04:45;94986.00;;;34.33;28.04
11099;BME280;12223;42.650;23.364;2023-08-21T11:07:12;94982.25;;;33.80;28.64
11099;BME280;12223;42.650;23.364;2023-08-21T11:09:39;94986.69;;;34.07;27.80
11099;BME280;12223;42.650;23.364;2023-08-21T11:12:07;94981.38;;;33.76;28.69
11099;BME280;12223;42.650;23.364;2023-08-21T11:14:34;94988.16;;;33.82;28.68
11099;BME280;12223;42.650;23.364;2023-08-21T11:17:02;94984.88;;;33.38;29.06
11099;BME280;12223;42.650;23.364;2023-08-21T11:19:31;94981.38;;;33.76;27.94
11099;BME280;12223;42.650;23.364;2023-08-21T11:21:58;94974.03;;;34.67;27.14
11099;BME280;12223;42.650;23.364;2023-08-21T11:24:39;94968.25;;;34.73;27.38
11099;BME280;12223;42.650;23.364;2023-08-21T11:27:07;94958.19;;;34.57;27.67
11099;BME280;12223;42.650;23.364;2023-08-21T11:29:36;94964.63;;;34.91;26.88
11099;BME280;12223;42.650;23.364;2023-08-21T11:32:07;94972.28;;;33.18;28.42
11099;BME280;12223;42.650;23.364;2023-08-21T11:34:36;94974.28;;;33.94;28.09
11099;BME280;12223;42.650;23.364;2023-08-21T11:37:04;94969.16;;;34.57;26.51
11099;BME280;12223;42.650;23.364;2023-08-21T11:39:44;94963.56;;;34.27;25.94
11099;BME280;12223;42.650;23.364;2023-08-21T11:42:11;94953.38;;;34.28;26.45
11099;BME280;12223;42.650;23.364;2023-08-21T11:44:45;94948.66;;;34.71;26.21
11099;BME280;12223;42.650;23.364;2023-08-21T11:47:13;94978.56;;;35.32;25.01
11099;BME280;12223;42.650;23.364;2023-08-21T11:49:42;94977.47;;;33.58;26.79
11099;BME280;12223;42.650;23.364;2023-08-21T11:52:09;94960.09;;;33.88;25.84
11099;BME280;12223;42.650;23.364;2023-08-21T11:54:37;94956.47;;;32.92;26.99
11099;BME280;12223;42.650;23.364;2023-08-21T11:57:07;94940.22;;;33.72;25.99
11099;BME280;12223;42.650;23.364;2023-08-21T11:59:34;94946.44;;;33.92;25.95
11099;BME280;12223;42.650;23.364;2023-08-21T12:02:08;94924.06;;;34.78;24.83
11099;BME280;12223;42.650;23.364;2023-08-21T12:04:35;94944.41;;;34.77;25.18
11099;BME280;12223;42.650;23.364;2023-08-21T12:07:04;94942.88;;;34.79;25.00
11099;BME280;12223;42.650;23.364;2023-08-21T12:09:31;94942.50;;;34.32;25.07
11099;BME280;12223;42.650;23.364;2023-08-21T12:11:58;94940.81;;;34.73;24.45
11099;BME280;12223;42.650;23.364;2023-08-21T12:14:25;94941.56;;;34.24;25.76
11099;BME280;12223;42.650;23.364;2023-08-21T12:16:52;94931.56;;;34.84;24.37
11099;BME280;12223;42.650;23.364;2023-08-21T12:19:19;94938.91;;;35.63;23.94
11099;BME280;12223;42.650;23.364;2023-08-21T12:21:47;94937.56;;;34.67;24.98
11099;BME280;12223;42.650;23.364;2023-08-21T12:24:15;94923.44;;;34.91;24.42
11099;BME280;12223;42.650;23.364;2023-08-21T12:26:42;94919.94;;;35.51;24.02
11099;BME280;12223;42.650;23.364;2023-08-21T12:29:08;94918.81;;;34.46;24.71
11099;BME280;12223;42.650;23.364;2023-08-21T12:31:35;94917.06;;;34.12;25.26
11099;BME280;12223;42.650;23.364;2023-08-21T12:34:02;94934.06;;;34.21;25.18
11099;BME280;12223;42.650;23.364;2023-08-21T12:36:30;94926.03;;;34.32;24.98
11099;BME280;12223;42.650;23.364;2023-08-21T12:38:56;94929.97;;;33.88;25.68
11099;BME280;12223;42.650;23.364;2023-08-21T12:41:25;94922.94;;;34.33;25.16
11099;BME280;12223;42.650;23.364;2023-08-21T12:43:51;94918.25;;;33.91;25.02
11099;BME280;12223;42.650;23.364;2023-08-21T12:46:18;94912.91;;;34.93;24.81
11099;BME280;12223;42.650;23.364;2023-08-21T12:48:45;94919.44;;;35.41;23.98
11099;BME280;12223;42.650;23.364;2023-08-21T12:51:12;94916.94;;;35.29;24.32
11099;BME280;12223;42.650;23.364;2023-08-21T12:53:38;94909.25;;;35.75;24.05
11099;BME280;12223;42.650;23.364;2023-08-21T12:56:05;94917.56;;;35.19;24.08